sensor_id;sensor_type;location;lat;lon;timestamp;temperature;humidity
4245;DHT22;2136;48.502;9.194;2022-07-05T00:00:56;20.40;92.00
4245;DHT22;2136;48.502;9.194;2022-07-05T00:03:24;20.40;92.40
4245;DHT22;2136;48.502;9.194;2022-07-05T00:05:51;20.40;92.30
4245;DHT22;2136;48.502;9.194;2022-07-05T00:08:17;20.40;92.10
4245;DHT22;2136;48.502;9.194;2022-07-05T00:10:44;20.40;91.50
4245;DHT22;2136;48.502;9.194;2022-07-05T00:13:11;20.40;91.30
4245;DHT22;2136;48.502;9.194;2022-07-05T00:15:38;20.40;91.20
4245;DHT22;2136;48.502;9.194;2022-07-05T00:18:07;20.40;91.00
4245;DHT22;2136;48.502;9.194;2022-07-05T00:20:34;20.40;91.30
4245;DHT22;2136;48.502;9.194;2022-07-05T00:23:00;20.40;91.20
4245;DHT22;2136;48.502;9.194;2022-07-05T00:25:27;20.30;90.90
4245;DHT22;2136;48.502;9.194;2022-07-05T00:27:54;20.30;90.90
4245;DHT22;2136;48.502;9.194;2022-07-05T00:30:21;20.20;92.00
4245;DHT22;2136;48.502;9.194;2022-07-05T00:32:48;20.10;92.80
4245;DHT22;2136;48.502;9.194;2022-07-05T00:35:16;20.00;93.70
4245;DHT22;2136;48.502;9.194;2022-07-05T00:37:43;20.00;93.60
4245;DHT22;2136;48.502;9.194;2022-07-05T00:40:10;19.90;93.40
4245;DHT22;2136;48.502;9.194;2022-07-05T00:42:37;19.90;93.40
4245;DHT22;2136;48.502;9.194;2022-07-05T00:45:04;19.90;93.10
4245;DHT22;2136;48.502;9.194;2022-07-05T00:47:32;19.80;93.50
4245;DHT22;2136;48.502;9.194;2022-07-05T00:49:59;19.80;93.60
4245;DHT22;2136;48.502;9.194;2022-07-05T00:52:27;19.80;93.60
4245;DHT22;2136;48.502;9.194;2022-07-05T00:54:54;19.80;93.70
4245;DHT22;2136;48.502;9.194;2022-07-05T00:57:22;19.70;93.80
4245;DHT22;2136;48.502;9.194;2022-07-05T00:59:49;19.70;94.10
4245;DHT22;2136;48.502;9.194;2022-07-05T01:02:16;19.60;94.60
4245;DHT22;2136;48.502;9.194;2022-07-05T01:04:46;19.60;94.80
4245;DHT22;2136;48.502;9.194;2022-07-05T01:07:13;19.60;95.00
4245;DHT22;2136;48.502;9.194;2022-07-05T01:09:42;19.50;95.50
4245;DHT22;2136;48.502;9.194;2022-07-05T01:12:09;19.50;96.00
4245;DHT22;2136;48.502;9.194;2022-07-05T01:14:36;19.50;96.40
4245;DHT22;2136;48.502;9.194;2022-07-05T01:17:04;19.50;96.60
4245;DHT22;2136;48.502;9.194;2022-07-05T01:19:31;19.40;96.80
4245;DHT22;2136;48.502;9.194;2022-07-05T01:22:02;19.40;97.00
4245;DHT22;2136;48.502;9.194;2022-07-05T01:24:31;19.40;97.20
4245;DHT22;2136;48.502;9.194;2022-07-05T01:26:58;19.40;97.40
4245;DHT22;2136;48.502;9.194;2022-07-05T01:29:26;19.30;97.60
4245;DHT22;2136;48.502;9.194;2022-07-05T01:31:52;19.30;97.80
4245;DHT22;2136;48.502;9.194;2022-07-05T01:34:19;19.30;97.90
4245;DHT22;2136;48.502;9.194;2022-07-05T01:36:46;19.20;98.00
4245;DHT22;2136;48.502;9.194;2022-07-05T01:39:15;19.20;98.40
4245;DHT22;2136;48.502;9.194;2022-07-05T01:41:43;19.20;98.80
4245;DHT22;2136;48.502;9.194;2022-07-05T01:44:11;19.20;99.00
4245;DHT22;2136;48.502;9.194;2022-07-05T01:46:39;19.20;99.10
4245;DHT22;2136;48.502;9.194;2022-07-05T01:49:09;19.20;98.90
4245;DHT22;2136;48.502;9.194;2022-07-05T01:51:40;19.10;98.50
4245;DHT22;2136;48.502;9.194;2022-07-05T01:54:08;19.10;98.30
4245;DHT22;2136;48.502;9.194;2022-07-05T01:56:36;19.10;98.10
4245;DHT22;2136;48.502;9.194;2022-07-05T01:59:05;19.10;98.00
4245;DHT22;2136;48.502;9.194;2022-07-05T02:01:34;19.10;97.90
4245;DHT22;2136;48.502;9.194;2022-07-05T02:04:03;19.10;97.70
4245;DHT22;2136;48.502;9.194;2022-07-05T02:06:30;19.10;97.40
4245;DHT22;2136;48.502;9.194;2022-07-05T02:08:58;19.10;96.90
4245;DHT22;2136;48.502;9.194;2022-07-05T02:11:25;19.10;96.50
4245;DHT22;2136;48.502;9.194;2022-07-05T02:13:52;19.10;95.90
4245;DHT22;2136;48.502;9.194;2022-07-05T02:16:23;19.00;95.50
4245;DHT22;2136;48.502;9.194;2022-07-05T02:18:50;19.00;95.40
4245;DHT22;2136;48.502;9.194;2022-07-05T02:21:17;19.00;96.00
4245;DHT22;2136;48.502;9.194;2022-07-05T02:23:44;18.90;95.90
4245;DHT22;2136;48.502;9.194;2022-07-05T02:26:11;18.90;96.10
4245;DHT22;2136;48.502;9.194;2022-07-05T02:28:38;18.80;96.70
4245;DHT22;2136;48.502;9.194;2022-07-05T02:31:05;18.70;97.70
4245;DHT22;2136;48.502;9.194;2022-07-05T02:33:33;18.70;98.20
4245;DHT22;2136;48.502;9.194;2022-07-05T02:36:05;18.70;98.60
4245;DHT22;2136;48.502;9.194;2022-07-05T02:38:33;18.70;98.90
4245;DHT22;2136;48.502;9.194;2022-07-05T02:41:00;18.60;99.00
4245;DHT22;2136;48.502;9.194;2022-07-05T02:43:27;18.60;99.20
4245;DHT22;2136;48.502;9.194;2022-07-05T02:45:54;18.60;99.20
4245;DHT22;2136;48.502;9.194;2022-07-05T02:48:21;18.60;99.40
4245;DHT22;2136;48.502;9.194;2022-07-05T02:50:49;18.60;99.80
4245;DHT22;2136;48.502;9.194;2022-07-05T02:53:15;18.50;99.90
4245;DHT22;2136;48.502;9.194;2022-07-05T02:55:42;18.50;99.90
4245;DHT22;2136;48.502;9.194;2022-07-05T02:58:09;18.50;99.90
4245;DHT22;2136;48.502;9.194;2022-07-05T03:00:36;18.50;99.90
4245;DHT22;2136;48.502;9.194;2022-07-05T03:03:03;18.40;99.90
4245;DHT22;2136;48.502;9.194;2022-07-05T03:05:30;18.40;99.90
4245;DHT22;2136;48.502;9.194;2022-07-05T03:07:58;18.40;99.80
4245;DHT22;2136;48.502;9.194;2022-07-05T03:10:25;18.30;99.20
4245;DHT22;2136;48.502;9.194;2022-07-05T03:12:52;18.30;98.50
4245;DHT22;2136;48.502;9.194;2022-07-05T03:15:19;18.20;98.40
4245;DHT22;2136;48.502;9.194;2022-07-05T03:17:46;18.20;98.30
4245;DHT22;2136;48.502;9.194;2022-07-05T03:20:12;18.10;98.30
4245;DHT22;2136;48.502;9.194;2022-07-05T03:22:39;18.10;98.40
4245;DHT22;2136;48.502;9.194;2022-07-05T03:25:08;18.00;98.60
4245;DHT22;2136;48.502;9.194;2022-07-05T03:27:35;18.00;98.90
4245;DHT22;2136;48.502;9.194;2022-07-05T03:30:03;18.10;99.90
4245;DHT22;2136;48.502;9.194;2022-07-05T03:32:30;18.00;99.70
4245;DHT22;2136;48.502;9.194;2022-07-05T03:34:56;18.00;99.90
4245;DHT22;2136;48.502;9.194;2022-07-05T03:37:23;18.00;99.90
4245;DHT22;2136;48.502;9.194;2022-07-05T03:39:50;18.00;99.90
4245;DHT22;2136;48.502;9.194;2022-07-05T03:42:18;18.00;99.90
4245;DHT22;2136;48.502;9.194;2022-07-05T03:44:45;18.00;99.90
4245;DHT22;2136;48.502;9.194;2022-07-05T03:47:13;18.00;99.90
4245;DHT22;2136;48.502;9.194;2022-07-05T03:49:40;17.90;99.90
4245;DHT22;2136;48.502;9.194;2022-07-05T03:52:07;17.90;99.90
4245;DHT22;2136;48.502;9.194;2022-07-05T03:54:34;17.90;99.90
4245;DHT22;2136;48.502;9.194;2022-07-05T03:57:01;17.90;99.90
4245;DHT22;2136;48.502;9.194;2022-07-05T03:59:29;17.90;99.90
4245;DHT22;2136;48.502;9.194;2022-07-05T04:01:56;17.90;99.90
4245;DHT22;2136;48.502;9.194;2022-07-05T04:04:22;17.90;99.90
4245;DHT22;2136;48.502;9.194;2022-07-05T04:06:49;17.90;99.90
4245;DHT22;2136;48.502;9.194;2022-07-05T04:09:16;17.90;99.90
4245;DHT22;2136;48.502;9.194;2022-07-05T04:11:43;17.90;99.90
4245;DHT22;2136;48.502;9.194;2022-07-05T04:14:10;17.90;99.90
4245;DHT22;2136;48.502;9.194;2022-07-05T04:16:38;17.90;99.90
4245;DHT22;2136;48.502;9.194;2022-07-05T04:19:05;17.90;99.90
4245;DHT22;2136;48.502;9.194;2022-07-05T04:21:32;17.90;99.90
4245;DHT22;2136;48.502;9.194;2022-07-05T04:23:58;17.90;99.90
4245;DHT22;2136;48.502;9.194;2022-07-05T04:26:26;17.90;99.90
4245;DHT22;2136;48.502;9.194;2022-07-05T04:28:53;17.90;99.90
4245;DHT22;2136;48.502;9.194;2022-07-05T04:31:19;17.90;99.90
4245;DHT22;2136;48.502;9.194;2022-07-05T04:33:48;18.00;99.90
4245;DHT22;2136;48.502;9.194;2022-07-05T04:36:14;17.90;99.90
4245;DHT22;2136;48.502;9.194;2022-07-05T04:38:41;18.00;99.90
4245;DHT22;2136;48.502;9.194;2022-07-05T04:41:08;18.00;99.90
4245;DHT22;2136;48.502;9.194;2022-07-05T04:43:35;18.00;99.90
4245;DHT22;2136;48.502;9.194;2022-07-05T04:46:02;18.00;99.90
4245;DHT22;2136;48.502;9.194;2022-07-05T04:48:28;18.00;99.90
4245;DHT22;2136;48.502;9.194;2022-07-05T04:50:57;18.10;99.90
4245;DHT22;2136;48.502;9.194;2022-07-05T04:53:24;18.10;99.90
4245;DHT22;2136;48.502;9.194;2022-07-05T04:55:50;18.10;99.90
4245;DHT22;2136;48.502;9.194;2022-07-05T04:58:17;18.10;99.90
4245;DHT22;2136;48.502;9.194;2022-07-05T05:00:44;18.10;99.90
4245;DHT22;2136;48.502;9.194;2022-07-05T05:03:11;18.10;99.90
4245;DHT22;2136;48.502;9.194;2022-07-05T05:05:38;18.20;99.60
4245;DHT22;2136;48.502;9.194;2022-07-05T05:08:06;18.20;99.30
4245;DHT22;2136;48.502;9.194;2022-07-05T05:10:33;18.20;99.00
4245;DHT22;2136;48.502;9.194;2022-07-05T05:13:00;18.20;98.80
4245;DHT22;2136;48.502;9.194;2022-07-05T05:15:27;18.30;98.60
4245;DHT22;2136;48.502;9.194;2022-07-05T05:17:53;18.20;98.30
4245;DHT22;2136;48.502;9.194;2022-07-05T05:20:20;18.30;98.50
4245;DHT22;2136;48.502;9.194;2022-07-05T05:22:47;18.30;98.50
4245;DHT22;2136;48.502;9.194;2022-07-05T05:25:15;18.30;98.00
4245;DHT22;2136;48.502;9.194;2022-07-05T05:27:43;18.40;97.80
4245;DHT22;2136;48.502;9.194;2022-07-05T05:30:12;18.40;98.00
4245;DHT22;2136;48.502;9.194;2022-07-05T05:32:39;18.40;98.20
4245;DHT22;2136;48.502;9.194;2022-07-05T05:35:07;18.40;98.30
4245;DHT22;2136;48.502;9.194;2022-07-05T05:37:45;18.40;97.90
4245;DHT22;2136;48.502;9.194;2022-07-05T05:40:13;18.50;98.00
4245;DHT22;2136;48.502;9.194;2022-07-05T05:42:41;18.50;97.20
4245;DHT22;2136;48.502;9.194;2022-07-05T05:45:09;18.50;96.80
4245;DHT22;2136;48.502;9.194;2022-07-05T05:47:46;18.50;96.70
4245;DHT22;2136;48.502;9.194;2022-07-05T05:50:13;18.50;95.70
4245;DHT22;2136;48.502;9.194;2022-07-05T05:52:40;18.50;95.40
4245;DHT22;2136;48.502;9.194;2022-07-05T05:55:07;18.60;95.00
4245;DHT22;2136;48.502;9.194;2022-07-05T05:57:34;18.60;95.00
4245;DHT22;2136;48.502;9.194;2022-07-05T06:00:04;18.70;95.20
4245;DHT22;2136;48.502;9.194;2022-07-05T06:02:32;18.70;95.30
4245;DHT22;2136;48.502;9.194;2022-07-05T06:04:59;18.80;94.80
4245;DHT22;2136;48.502;9.194;2022-07-05T06:07:26;18.80;94.30
4245;DHT22;2136;48.502;9.194;2022-07-05T06:09:52;18.90;93.40
4245;DHT22;2136;48.502;9.194;2022-07-05T06:12:19;18.90;92.60
4245;DHT22;2136;48.502;9.194;2022-07-05T06:14:46;19.00;92.40
4245;DHT22;2136;48.502;9.194;2022-07-05T06:17:14;19.10;91.50
4245;DHT22;2136;48.502;9.194;2022-07-05T06:19:41;19.10;90.30
4245;DHT22;2136;48.502;9.194;2022-07-05T06:22:08;19.20;89.20
4245;DHT22;2136;48.502;9.194;2022-07-05T06:24:35;19.30;87.80
4245;DHT22;2136;48.502;9.194;2022-07-05T06:27:02;19.30;86.70
4245;DHT22;2136;48.502;9.194;2022-07-05T06:29:29;19.40;86.80
4245;DHT22;2136;48.502;9.194;2022-07-05T06:31:56;19.40;86.20
4245;DHT22;2136;48.502;9.194;2022-07-05T06:34:26;19.60;86.20
4245;DHT22;2136;48.502;9.194;2022-07-05T06:36:53;19.60;84.10
4245;DHT22;2136;48.502;9.194;2022-07-05T06:39:20;19.70;83.60
4245;DHT22;2136;48.502;9.194;2022-07-05T06:41:47;19.70;81.80
4245;DHT22;2136;48.502;9.194;2022-07-05T06:44:13;19.80;80.50
4245;DHT22;2136;48.502;9.194;2022-07-05T06:46:40;19.80;79.10
4245;DHT22;2136;48.502;9.194;2022-07-05T06:49:07;19.90;77.00
4245;DHT22;2136;48.502;9.194;2022-07-05T06:51:35;19.90;74.80
4245;DHT22;2136;48.502;9.194;2022-07-05T06:54:02;20.00;73.20
4245;DHT22;2136;48.502;9.194;2022-07-05T06:56:29;20.10;72.20
4245;DHT22;2136;48.502;9.194;2022-07-05T06:58:56;20.10;70.40
4245;DHT22;2136;48.502;9.194;2022-07-05T07:01:23;20.20;70.60
4245;DHT22;2136;48.502;9.194;2022-07-05T07:03:50;20.30;69.60
4245;DHT22;2136;48.502;9.194;2022-07-05T07:06:17;20.30;68.40
4245;DHT22;2136;48.502;9.194;2022-07-05T07:08:45;20.40;67.70
4245;DHT22;2136;48.502;9.194;2022-07-05T07:11:30;20.50;66.30
4245;DHT22;2136;48.502;9.194;2022-07-05T07:13:57;20.50;65.20
4245;DHT22;2136;48.502;9.194;2022-07-05T07:16:23;20.60;65.10
4245;DHT22;2136;48.502;9.194;2022-07-05T07:18:51;20.70;65.00
4245;DHT22;2136;48.502;9.194;2022-07-05T07:21:18;20.70;64.40
4245;DHT22;2136;48.502;9.194;2022-07-05T07:23:46;20.80;64.10
4245;DHT22;2136;48.502;9.194;2022-07-05T07:26:13;20.90;63.90
4245;DHT22;2136;48.502;9.194;2022-07-05T07:28:40;21.00;64.60
4245;DHT22;2136;48.502;9.194;2022-07-05T07:31:07;21.10;63.60
4245;DHT22;2136;48.502;9.194;2022-07-05T07:33:34;21.20;64.10
4245;DHT22;2136;48.502;9.194;2022-07-05T07:36:01;21.20;62.90
4245;DHT22;2136;48.502;9.194;2022-07-05T07:38:28;21.30;62.70
4245;DHT22;2136;48.502;9.194;2022-07-05T07:40:57;21.40;63.30
4245;DHT22;2136;48.502;9.194;2022-07-05T07:43:25;21.50;62.30
4245;DHT22;2136;48.502;9.194;2022-07-05T07:45:52;21.50;61.20
4245;DHT22;2136;48.502;9.194;2022-07-05T07:48:20;21.60;60.60
4245;DHT22;2136;48.502;9.194;2022-07-05T07:50:47;21.60;60.40
4245;DHT22;2136;48.502;9.194;2022-07-05T07:53:14;21.70;60.90
4245;DHT22;2136;48.502;9.194;2022-07-05T07:55:40;21.80;60.80
4245;DHT22;2136;48.502;9.194;2022-07-05T07:58:09;21.90;61.30
4245;DHT22;2136;48.502;9.194;2022-07-05T08:00:36;22.00;61.50
4245;DHT22;2136;48.502;9.194;2022-07-05T08:03:02;22.10;61.20
4245;DHT22;2136;48.502;9.194;2022-07-05T08:05:29;22.20;60.70
4245;DHT22;2136;48.502;9.194;2022-07-05T08:07:56;22.30;60.00
4245;DHT22;2136;48.502;9.194;2022-07-05T08:10:23;22.40;60.40
4245;DHT22;2136;48.502;9.194;2022-07-05T08:12:50;22.50;60.90
4245;DHT22;2136;48.502;9.194;2022-07-05T08:15:18;22.50;60.30
4245;DHT22;2136;48.502;9.194;2022-07-05T08:17:45;22.60;60.20
4245;DHT22;2136;48.502;9.194;2022-07-05T08:20:26;22.70;59.90
4245;DHT22;2136;48.502;9.194;2022-07-05T08:23:10;22.80;58.60
4245;DHT22;2136;48.502;9.194;2022-07-05T08:25:37;22.90;58.10
4245;DHT22;2136;48.502;9.194;2022-07-05T08:28:04;23.00;57.60
4245;DHT22;2136;48.502;9.194;2022-07-05T08:30:32;23.10;57.00
4245;DHT22;2136;48.502;9.194;2022-07-05T08:32:59;23.20;57.00
4245;DHT22;2136;48.502;9.194;2022-07-05T08:35:26;23.30;56.50
4245;DHT22;2136;48.502;9.194;2022-07-05T08:37:53;23.40;56.30
4245;DHT22;2136;48.502;9.194;2022-07-05T08:40:22;23.50;56.40
4245;DHT22;2136;48.502;9.194;2022-07-05T08:42:54;23.50;55.10
4245;DHT22;2136;48.502;9.194;2022-07-05T08:45:23;23.60;54.50
4245;DHT22;2136;48.502;9.194;2022-07-05T08:47:54;23.70;54.80
4245;DHT22;2136;48.502;9.194;2022-07-05T08:50:22;23.80;54.60
4245;DHT22;2136;48.502;9.194;2022-07-05T08:52:50;23.90;54.40
4245;DHT22;2136;48.502;9.194;2022-07-05T08:55:17;24.10;54.60
4245;DHT22;2136;48.502;9.194;2022-07-05T08:57:44;24.20;54.10
4245;DHT22;2136;48.502;9.194;2022-07-05T09:00:12;24.30;52.60
4245;DHT22;2136;48.502;9.194;2022-07-05T09:02:39;24.40;53.10
4245;DHT22;2136;48.502;9.194;2022-07-05T09:05:10;24.60;53.30
4245;DHT22;2136;48.502;9.194;2022-07-05T09:07:50;24.80;53.60
4245;DHT22;2136;48.502;9.194;2022-07-05T09:10:20;25.00;53.00
4245;DHT22;2136;48.502;9.194;2022-07-05T09:12:48;25.00;51.70
4245;DHT22;2136;48.502;9.194;2022-07-05T09:15:15;25.20;51.30
4245;DHT22;2136;48.502;9.194;2022-07-05T09:17:43;25.40;51.40
4245;DHT22;2136;48.502;9.194;2022-07-05T09:20:12;25.50;51.00
4245;DHT22;2136;48.502;9.194;2022-07-05T09:22:47;25.60;50.70
4245;DHT22;2136;48.502;9.194;2022-07-05T09:25:20;25.80;51.50
4245;DHT22;2136;48.502;9.194;2022-07-05T09:27:52;26.00;51.40
4245;DHT22;2136;48.502;9.194;2022-07-05T09:30:33;26.10;50.50
4245;DHT22;2136;48.502;9.194;2022-07-05T09:33:04;26.20;49.70
4245;DHT22;2136;48.502;9.194;2022-07-05T09:35:35;26.40;50.50
4245;DHT22;2136;48.502;9.194;2022-07-05T09:38:02;26.50;51.50
4245;DHT22;2136;48.502;9.194;2022-07-05T09:40:30;26.70;50.40
4245;DHT22;2136;48.502;9.194;2022-07-05T09:43:11;26.80;50.00
4245;DHT22;2136;48.502;9.194;2022-07-05T09:45:38;27.00;51.50
4245;DHT22;2136;48.502;9.194;2022-07-05T09:48:07;27.20;52.50
4245;DHT22;2136;48.502;9.194;2022-07-05T09:50:36;27.40;50.60
4245;DHT22;2136;48.502;9.194;2022-07-05T09:53:03;27.60;48.70
4245;DHT22;2136;48.502;9.194;2022-07-05T09:55:31;27.70;46.80
4245;DHT22;2136;48.502;9.194;2022-07-05T09:57:58;27.90;46.60
4245;DHT22;2136;48.502;9.194;2022-07-05T10:00:25;28.00;45.20
4245;DHT22;2136;48.502;9.194;2022-07-05T10:02:56;28.30;44.50
4245;DHT22;2136;48.502;9.194;2022-07-05T10:05:28;29.00;44.80
4245;DHT22;2136;48.502;9.194;2022-07-05T10:08:01;29.90;42.00
4245;DHT22;2136;48.502;9.194;2022-07-05T10:10:29;31.10;43.00
4245;DHT22;2136;48.502;9.194;2022-07-05T10:13:01;32.40;41.00
4245;DHT22;2136;48.502;9.194;2022-07-05T10:15:30;33.40;37.90
4245;DHT22;2136;48.502;9.194;2022-07-05T10:18:00;33.20;35.00
4245;DHT22;2136;48.502;9.194;2022-07-05T10:20:37;32.50;35.50
4245;DHT22;2136;48.502;9.194;2022-07-05T10:23:11;33.30;34.60
4245;DHT22;2136;48.502;9.194;2022-07-05T10:25:39;35.50;33.40
4245;DHT22;2136;48.502;9.194;2022-07-05T10:28:07;37.70;31.10
4245;DHT22;2136;48.502;9.194;2022-07-05T10:30:35;39.80;32.10
4245;DHT22;2136;48.502;9.194;2022-07-05T10:33:03;41.60;27.70
4245;DHT22;2136;48.502;9.194;2022-07-05T10:35:30;43.40;26.40
4245;DHT22;2136;48.502;9.194;2022-07-05T10:37:58;45.30;25.00
4245;DHT22;2136;48.502;9.194;2022-07-05T10:40:28;47.20;23.90
4245;DHT22;2136;48.502;9.194;2022-07-05T10:42:59;48.80;23.20
4245;DHT22;2136;48.502;9.194;2022-07-05T10:45:28;48.10;22.00
4245;DHT22;2136;48.502;9.194;2022-07-05T10:48:15;47.00;23.00
4245;DHT22;2136;48.502;9.194;2022-07-05T10:50:43;48.20;22.80
4245;DHT22;2136;48.502;9.194;2022-07-05T10:53:10;49.70;22.70
4245;DHT22;2136;48.502;9.194;2022-07-05T10:55:49;50.80;21.60
4245;DHT22;2136;48.502;9.194;2022-07-05T10:58:26;50.40;20.50
4245;DHT22;2136;48.502;9.194;2022-07-05T11:04:06;46.00;21.80
4245;DHT22;2136;48.502;9.194;2022-07-05T11:06:40;44.70;22.30
4245;DHT22;2136;48.502;9.194;2022-07-05T11:09:15;45.60;22.50
4245;DHT22;2136;48.502;9.194;2022-07-05T11:11:44;46.20;22.20
4245;DHT22;2136;48.502;9.194;2022-07-05T11:17:23;50.00;21.10
4245;DHT22;2136;48.502;9.194;2022-07-05T11:20:00;51.70;20.40
4245;DHT22;2136;48.502;9.194;2022-07-05T11:22:27;53.20;19.70
4245;DHT22;2136;48.502;9.194;2022-07-05T11:24:55;54.30;19.40
4245;DHT22;2136;48.502;9.194;2022-07-05T11:27:23;53.40;18.10
4245;DHT22;2136;48.502;9.194;2022-07-05T11:29:51;51.20;17.80
4245;DHT22;2136;48.502;9.194;2022-07-05T11:32:19;49.30;19.10
4245;DHT22;2136;48.502;9.194;2022-07-05T11:34:48;49.80;20.10
4245;DHT22;2136;48.502;9.194;2022-07-05T11:37:18;51.00;20.10
4245;DHT22;2136;48.502;9.194;2022-07-05T11:42:53;53.80;19.10
4245;DHT22;2136;48.502;9.194;2022-07-05T11:45:20;55.10;18.80
4245;DHT22;2136;48.502;9.194;2022-07-05T11:47:47;55.80;18.90
4245;DHT22;2136;48.502;9.194;2022-07-05T11:50:14;55.70;18.70
4245;DHT22;2136;48.502;9.194;2022-07-05T11:52:41;55.80;18.10
4245;DHT22;2136;48.502;9.194;2022-07-05T11:55:09;56.30;17.80
4245;DHT22;2136;48.502;9.194;2022-07-05T11:57:37;56.70;17.90
4245;DHT22;2136;48.502;9.194;2022-07-05T12:00:07;57.10;17.60
4245;DHT22;2136;48.502;9.194;2022-07-05T12:02:42;57.50;17.60
4245;DHT22;2136;48.502;9.194;2022-07-05T12:05:09;58.00;17.20
4245;DHT22;2136;48.502;9.194;2022-07-05T12:07:37;58.00;16.80
4245;DHT22;2136;48.502;9.194;2022-07-05T12:10:06;58.10;16.80
4245;DHT22;2136;48.502;9.194;2022-07-05T12:12:50;58.10;16.40
4245;DHT22;2136;48.502;9.194;2022-07-05T12:15:20;57.60;16.40
4245;DHT22;2136;48.502;9.194;2022-07-05T12:17:49;56.40;16.10
4245;DHT22;2136;48.502;9.194;2022-07-05T12:20:23;55.00;16.50
4245;DHT22;2136;48.502;9.194;2022-07-05T12:22:51;53.90;17.20
4245;DHT22;2136;48.502;9.194;2022-07-05T12:25:20;52.50;17.40
4245;DHT22;2136;48.502;9.194;2022-07-05T12:27:49;51.80;18.60
4245;DHT22;2136;48.502;9.194;2022-07-05T12:30:16;51.50;18.60
4245;DHT22;2136;48.502;9.194;2022-07-05T12:32:58;51.80;18.80
4245;DHT22;2136;48.502;9.194;2022-07-05T12:35:34;52.30;18.70
4245;DHT22;2136;48.502;9.194;2022-07-05T12:38:04;52.40;18.90
4245;DHT22;2136;48.502;9.194;2022-07-05T12:40:32;52.40;18.80
4245;DHT22;2136;48.502;9.194;2022-07-05T12:43:03;51.60;18.60
4245;DHT22;2136;48.502;9.194;2022-07-05T12:45:31;50.70;19.50
4245;DHT22;2136;48.502;9.194;2022-07-05T12:48:01;50.50;19.60
4245;DHT22;2136;48.502;9.194;2022-07-05T12:50:30;50.30;20.20
4245;DHT22;2136;48.502;9.194;2022-07-05T12:53:10;50.60;19.40
4245;DHT22;2136;48.502;9.194;2022-07-05T12:55:59;50.30;18.80
4245;DHT22;2136;48.502;9.194;2022-07-05T12:58:47;48.70;18.70
4245;DHT22;2136;48.502;9.194;2022-07-05T13:01:25;46.20;20.30
4245;DHT22;2136;48.502;9.194;2022-07-05T13:04:11;44.30;21.40
4245;DHT22;2136;48.502;9.194;2022-07-05T13:06:46;42.60;23.10
4245;DHT22;2136;48.502;9.194;2022-07-05T13:09:16;41.20;23.40
4245;DHT22;2136;48.502;9.194;2022-07-05T13:12:05;40.10;23.20
4245;DHT22;2136;48.502;9.194;2022-07-05T13:14:32;39.10;25.10
4245;DHT22;2136;48.502;9.194;2022-07-05T13:16:59;38.50;25.30
4245;DHT22;2136;48.502;9.194;2022-07-05T13:19:27;38.30;25.30
4245;DHT22;2136;48.502;9.194;2022-07-05T13:21:54;37.70;25.20
4245;DHT22;2136;48.502;9.194;2022-07-05T13:24:27;37.10;25.50
4245;DHT22;2136;48.502;9.194;2022-07-05T13:26:57;36.50;27.30
4245;DHT22;2136;48.502;9.194;2022-07-05T13:29:29;35.70;28.40
4245;DHT22;2136;48.502;9.194;2022-07-05T13:31:56;35.00;28.50
4245;DHT22;2136;48.502;9.194;2022-07-05T13:34:23;34.40;29.50
4245;DHT22;2136;48.502;9.194;2022-07-05T13:36:53;34.10;30.10
4245;DHT22;2136;48.502;9.194;2022-07-05T13:39:21;33.80;31.50
4245;DHT22;2136;48.502;9.194;2022-07-05T13:41:50;33.60;30.60
4245;DHT22;2136;48.502;9.194;2022-07-05T13:44:17;33.30;30.10
4245;DHT22;2136;48.502;9.194;2022-07-05T13:46:45;33.10;31.50
4245;DHT22;2136;48.502;9.194;2022-07-05T13:49:11;33.20;31.70
4245;DHT22;2136;48.502;9.194;2022-07-05T13:51:38;33.20;31.00
4245;DHT22;2136;48.502;9.194;2022-07-05T13:54:07;33.20;30.50
4245;DHT22;2136;48.502;9.194;2022-07-05T13:56:34;33.10;31.50
4245;DHT22;2136;48.502;9.194;2022-07-05T13:59:02;33.10;32.50
4245;DHT22;2136;48.502;9.194;2022-07-05T14:01:29;33.20;30.10
4245;DHT22;2136;48.502;9.194;2022-07-05T14:03:57;33.40;29.60
4245;DHT22;2136;48.502;9.194;2022-07-05T14:06:24;33.50;29.80
4245;DHT22;2136;48.502;9.194;2022-07-05T14:08:51;33.60;30.10
4245;DHT22;2136;48.502;9.194;2022-07-05T14:11:19;33.70;29.60
4245;DHT22;2136;48.502;9.194;2022-07-05T14:13:46;34.20;29.30
4245;DHT22;2136;48.502;9.194;2022-07-05T14:16:13;34.80;29.30
4245;DHT22;2136;48.502;9.194;2022-07-05T14:18:40;34.90;30.20
4245;DHT22;2136;48.502;9.194;2022-07-05T14:21:07;34.90;30.60
4245;DHT22;2136;48.502;9.194;2022-07-05T14:23:35;34.60;31.40
4245;DHT22;2136;48.502;9.194;2022-07-05T14:26:01;34.30;30.20
4245;DHT22;2136;48.502;9.194;2022-07-05T14:28:30;33.90;30.80
4245;DHT22;2136;48.502;9.194;2022-07-05T14:30:57;33.50;31.80
4245;DHT22;2136;48.502;9.194;2022-07-05T14:33:24;33.20;31.70
4245;DHT22;2136;48.502;9.194;2022-07-05T14:35:51;32.90;32.60
4245;DHT22;2136;48.502;9.194;2022-07-05T14:38:18;32.60;33.40
4245;DHT22;2136;48.502;9.194;2022-07-05T14:40:44;32.40;33.80
4245;DHT22;2136;48.502;9.194;2022-07-05T14:43:11;32.10;33.80
4245;DHT22;2136;48.502;9.194;2022-07-05T14:45:39;31.80;33.70
4245;DHT22;2136;48.502;9.194;2022-07-05T14:48:06;31.60;34.50
4245;DHT22;2136;48.502;9.194;2022-07-05T14:50:33;31.40;35.20
4245;DHT22;2136;48.502;9.194;2022-07-05T14:53:00;31.20;34.80
4245;DHT22;2136;48.502;9.194;2022-07-05T14:55:33;31.10;35.00
4245;DHT22;2136;48.502;9.194;2022-07-05T14:58:00;30.90;34.80
4245;DHT22;2136;48.502;9.194;2022-07-05T15:00:27;30.80;34.60
4245;DHT22;2136;48.502;9.194;2022-07-05T15:02:55;30.70;34.80
4245;DHT22;2136;48.502;9.194;2022-07-05T15:05:22;30.60;35.10
4245;DHT22;2136;48.502;9.194;2022-07-05T15:07:49;30.50;35.10
4245;DHT22;2136;48.502;9.194;2022-07-05T15:10:16;30.40;36.40
4245;DHT22;2136;48.502;9.194;2022-07-05T15:12:43;30.40;35.90
4245;DHT22;2136;48.502;9.194;2022-07-05T15:15:10;30.30;36.20
4245;DHT22;2136;48.502;9.194;2022-07-05T15:17:37;30.30;35.80
4245;DHT22;2136;48.502;9.194;2022-07-05T15:20:06;30.10;35.40
4245;DHT22;2136;48.502;9.194;2022-07-05T15:22:34;29.90;36.50
4245;DHT22;2136;48.502;9.194;2022-07-05T15:25:01;29.70;38.50
4245;DHT22;2136;48.502;9.194;2022-07-05T15:27:27;29.60;37.50
4245;DHT22;2136;48.502;9.194;2022-07-05T15:29:58;29.40;37.80
4245;DHT22;2136;48.502;9.194;2022-07-05T15:32:25;29.30;37.60
4245;DHT22;2136;48.502;9.194;2022-07-05T15:34:52;29.20;38.10
4245;DHT22;2136;48.502;9.194;2022-07-05T15:37:20;29.20;37.40
4245;DHT22;2136;48.502;9.194;2022-07-05T15:39:47;29.30;37.70
4245;DHT22;2136;48.502;9.194;2022-07-05T15:42:16;29.50;38.30
4245;DHT22;2136;48.502;9.194;2022-07-05T15:44:45;29.70;38.40
4245;DHT22;2136;48.502;9.194;2022-07-05T15:47:12;29.90;38.00
4245;DHT22;2136;48.502;9.194;2022-07-05T15:49:39;30.30;38.20
4245;DHT22;2136;48.502;9.194;2022-07-05T15:52:06;30.60;37.50
4245;DHT22;2136;48.502;9.194;2022-07-05T15:54:35;30.90;38.60
4245;DHT22;2136;48.502;9.194;2022-07-05T15:57:02;31.20;37.30
4245;DHT22;2136;48.502;9.194;2022-07-05T15:59:29;31.40;36.40
4245;DHT22;2136;48.502;9.194;2022-07-05T16:01:56;31.60;35.00
4245;DHT22;2136;48.502;9.194;2022-07-05T16:04:23;31.80;36.40
4245;DHT22;2136;48.502;9.194;2022-07-05T16:06:55;32.10;35.90
4245;DHT22;2136;48.502;9.194;2022-07-05T16:09:22;32.10;34.80
4245;DHT22;2136;48.502;9.194;2022-07-05T16:11:50;32.00;34.50
4245;DHT22;2136;48.502;9.194;2022-07-05T16:14:18;31.90;35.30
4245;DHT22;2136;48.502;9.194;2022-07-05T16:16:45;31.80;34.90
4245;DHT22;2136;48.502;9.194;2022-07-05T16:19:12;31.80;34.80